West Paducah, KY

3:28 PM CDT on September 30, 2014 (GMT -0500)
Heath | Change Station
CLOSE
Current Station
Personal Weather Station
Location: West Paducah, KY
Elevation: 404 ft
Nearby Weather Stations

Elev 404 ft 37.07 °N, 88.81 °W | Updated 2 seconds ago

Partly Cloudy
Partly Cloudy
82.9 °F
Feels Like 82 °F
N
2.2
Wind Variable Wind from East
Gusts 3.8 mph

Today
High -- | Low -- °F
--% Chance of Precip.
Yesterday
High -- | Low -- °F
Precip. -- in
6:49 AM 6:39 PM
Waxing Crescent, 40% visible
Pressure 29.89 in
Visibility 10.0 miles
Clouds Few 7000 ft
Heat Index 82 °F
Dew Point 55 °F
Humidity 39%
Rainfall 0.00 in
Snow Depth Not available.
UV 5 out of 12
Pollen 5.30 out of 12
Air Quality Not available.
Flu Activity Not available.
METAR KPAH 301953Z VRB04KT 10SM FEW070 30/12 A2990 RMK AO2 SLP120 T03000117

More Conditions Fewer Conditions

Pressure 29.89 in
Visibility 10.0 miles
Clouds Few 7000 ft
Heat Index 82 °F
Dew Point 55 °F
Humidity 39%
Rainfall 0.00 in
Snow Depth Not available.
UV 5 out of 12
Pollen 5.30 out of 12
Air Quality Not available.
Flu Activity Not available.
METAR KPAH 301953Z VRB04KT 10SM FEW070 30/12 A2990 RMK AO2 SLP120 T03000117

More Conditions Fewer Conditions

10-Day Weather Forecast

Almanac

Astronomy

Sep. 30, 2014 Rise Set
Actual Time 6:49 AM CDT 6:39 PM CDT
Civil Twilight 6:23 AM CDT 7:05 PM CDT
Nautical Twilight 5:53 AM CDT 7:35 PM CDT
Astronomical Twilight 5:23 AM CDT 8:06 PM CDT
Moon 12:51 PM CDT 11:16 PM CDT
Length of Visible Light 12h 42m
Length of Day
11h 50m
Tomorrow will be 2m 21s shorter.
Waxing Crescent, 40% of the Moon is Illuminated
Today
Waxing Crescent
Oct 1
First Quarter
Oct 8
Full
Oct 15
Last Quarter
Oct 23
New

Today's Extremes

State Highs State Lows

Community

WunderPhotos

Upload Photos

1,757,740 photos uploaded!

Nearby

Snow Depth

Station Depth Elevation
No new snow has been reported.

Earthquake Activity

City Distance Mag. Time & Date
No recent earthquake activity has been reported nearby.
Minimum magnitude displayed is 2.5.

Coastal Water Temperatures

Place Temperature
No Stations Reporting

Nearby Weather Stations